sensor_id;sensor_type;location;lat;lon;timestamp;P1;durP1;ratioP1;P2;durP2;ratioP2
34900;SDS011;21112;51.976;5.660;2023-04-15T00:00:07;6.95;;;2.70;;
34900;SDS011;21112;51.976;5.660;2023-04-15T00:02:34;5.32;;;2.20;;
34900;SDS011;21112;51.976;5.660;2023-04-15T00:05:01;4.63;;;2.10;;
34900;SDS011;21112;51.976;5.660;2023-04-15T00:07:28;8.07;;;2.28;;
34900;SDS011;21112;51.976;5.660;2023-04-15T00:09:55;6.53;;;2.42;;
34900;SDS011;21112;51.976;5.660;2023-04-15T00:12:22;5.18;;;2.25;;
34900;SDS011;21112;51.976;5.660;2023-04-15T00:14:50;4.85;;;2.20;;
34900;SDS011;21112;51.976;5.660;2023-04-15T00:17:17;5.13;;;2.30;;
34900;SDS011;21112;51.976;5.660;2023-04-15T00:19:44;4.68;;;2.45;;
34900;SDS011;21112;51.976;5.660;2023-04-15T00:22:11;5.78;;;2.30;;
34900;SDS011;21112;51.976;5.660;2023-04-15T00:24:38;3.97;;;2.05;;
34900;SDS011;21112;51.976;5.660;2023-04-15T00:27:04;5.80;;;2.58;;
34900;SDS011;21112;51.976;5.660;2023-04-15T00:29:34;4.70;;;1.95;;
34900;SDS011;21112;51.976;5.660;2023-04-15T00:32:02;5.88;;;2.10;;
34900;SDS011;21112;51.976;5.660;2023-04-15T00:34:29;4.22;;;2.17;;
34900;SDS011;21112;51.976;5.660;2023-04-15T00:36:56;4.82;;;2.22;;
34900;SDS011;21112;51.976;5.660;2023-04-15T00:39:22;4.22;;;1.88;;
34900;SDS011;21112;51.976;5.660;2023-04-15T00:41:49;3.60;;;1.88;;
34900;SDS011;21112;51.976;5.660;2023-04-15T00:44:15;6.85;;;2.40;;
34900;SDS011;21112;51.976;5.660;2023-04-15T00:46:43;4.63;;;2.30;;
34900;SDS011;21112;51.976;5.660;2023-04-15T00:49:12;5.38;;;2.30;;
34900;SDS011;21112;51.976;5.660;2023-04-15T00:51:39;4.93;;;2.35;;
34900;SDS011;21112;51.976;5.660;2023-04-15T00:54:05;5.30;;;2.28;;
34900;SDS011;21112;51.976;5.660;2023-04-15T00:56:33;4.80;;;2.20;;
34900;SDS011;21112;51.976;5.660;2023-04-15T00:59:00;4.60;;;2.38;;
34900;SDS011;21112;51.976;5.660;2023-04-15T01:01:27;7.57;;;2.45;;
34900;SDS011;21112;51.976;5.660;2023-04-15T01:03:54;8.50;;;2.60;;
34900;SDS011;21112;51.976;5.660;2023-04-15T01:06:23;8.15;;;2.47;;
34900;SDS011;21112;51.976;5.660;2023-04-15T01:08:51;5.05;;;2.58;;
34900;SDS011;21112;51.976;5.660;2023-04-15T01:11:18;6.32;;;2.47;;
34900;SDS011;21112;51.976;5.660;2023-04-15T01:13:45;6.03;;;2.38;;
34900;SDS011;21112;51.976;5.660;2023-04-15T01:16:12;6.75;;;2.20;;
34900;SDS011;21112;51.976;5.660;2023-04-15T01:18:39;4.20;;;2.20;;
34900;SDS011;21112;51.976;5.660;2023-04-15T01:21:06;6.57;;;2.60;;
34900;SDS011;21112;51.976;5.660;2023-04-15T01:23:36;8.25;;;2.22;;
34900;SDS011;21112;51.976;5.660;2023-04-15T01:26:05;5.43;;;2.20;;
34900;SDS011;21112;51.976;5.660;2023-04-15T01:28:33;4.70;;;2.10;;
34900;SDS011;21112;51.976;5.660;2023-04-15T01:31:06;4.68;;;2.47;;
34900;SDS011;21112;51.976;5.660;2023-04-15T01:33:33;7.65;;;2.65;;
34900;SDS011;21112;51.976;5.660;2023-04-15T01:36:00;7.32;;;2.70;;
34900;SDS011;21112;51.976;5.660;2023-04-15T01:38:27;5.10;;;2.40;;
34900;SDS011;21112;51.976;5.660;2023-04-15T01:40:54;4.68;;;2.35;;
34900;SDS011;21112;51.976;5.660;2023-04-15T01:43:23;5.90;;;2.17;;
34900;SDS011;21112;51.976;5.660;2023-04-15T01:45:49;5.03;;;2.40;;
34900;SDS011;21112;51.976;5.660;2023-04-15T01:48:16;6.28;;;2.55;;
34900;SDS011;21112;51.976;5.660;2023-04-15T01:50:43;4.60;;;2.42;;
34900;SDS011;21112;51.976;5.660;2023-04-15T01:53:10;6.40;;;1.92;;
34900;SDS011;21112;51.976;5.660;2023-04-15T01:55:37;4.57;;;2.30;;
34900;SDS011;21112;51.976;5.660;2023-04-15T01:58:04;5.22;;;2.38;;
34900;SDS011;21112;51.976;5.660;2023-04-15T02:00:32;4.78;;;2.30;;
34900;SDS011;21112;51.976;5.660;2023-04-15T02:02:59;6.85;;;2.58;;
34900;SDS011;21112;51.976;5.660;2023-04-15T02:05:26;4.88;;;2.60;;
34900;SDS011;21112;51.976;5.660;2023-04-15T02:07:53;4.90;;;2.20;;
34900;SDS011;21112;51.976;5.660;2023-04-15T02:10:20;5.35;;;2.35;;
34900;SDS011;21112;51.976;5.660;2023-04-15T02:12:47;5.05;;;2.50;;
34900;SDS011;21112;51.976;5.660;2023-04-15T02:15:14;5.47;;;2.40;;
34900;SDS011;21112;51.976;5.660;2023-04-15T02:17:42;5.40;;;2.42;;
34900;SDS011;21112;51.976;5.660;2023-04-15T02:20:10;5.35;;;2.15;;
34900;SDS011;21112;51.976;5.660;2023-04-15T02:22:37;6.70;;;2.33;;
34900;SDS011;21112;51.976;5.660;2023-04-15T02:25:04;5.75;;;2.50;;
34900;SDS011;21112;51.976;5.660;2023-04-15T02:27:31;5.10;;;2.25;;
34900;SDS011;21112;51.976;5.660;2023-04-15T02:29:58;5.30;;;2.65;;
34900;SDS011;21112;51.976;5.660;2023-04-15T02:32:25;6.65;;;3.00;;
34900;SDS011;21112;51.976;5.660;2023-04-15T02:34:54;5.80;;;2.38;;
34900;SDS011;21112;51.976;5.660;2023-04-15T02:37:21;8.75;;;2.65;;
34900;SDS011;21112;51.976;5.660;2023-04-15T02:39:48;4.95;;;2.35;;
34900;SDS011;21112;51.976;5.660;2023-04-15T02:42:15;5.28;;;2.42;;
34900;SDS011;21112;51.976;5.660;2023-04-15T02:44:42;6.55;;;2.80;;
34900;SDS011;21112;51.976;5.660;2023-04-15T02:47:09;4.88;;;2.22;;
34900;SDS011;21112;51.976;5.660;2023-04-15T02:49:36;6.20;;;2.70;;
34900;SDS011;21112;51.976;5.660;2023-04-15T02:52:04;4.93;;;2.42;;
34900;SDS011;21112;51.976;5.660;2023-04-15T02:54:31;6.78;;;2.72;;
34900;SDS011;21112;51.976;5.660;2023-04-15T02:57:01;8.80;;;2.83;;
34900;SDS011;21112;51.976;5.660;2023-04-15T02:59:30;5.82;;;2.58;;
34900;SDS011;21112;51.976;5.660;2023-04-15T03:01:57;6.93;;;2.53;;
34900;SDS011;21112;51.976;5.660;2023-04-15T03:04:25;7.40;;;2.88;;
34900;SDS011;21112;51.976;5.660;2023-04-15T03:06:54;6.07;;;3.00;;
34900;SDS011;21112;51.976;5.660;2023-04-15T03:09:22;6.43;;;2.60;;
34900;SDS011;21112;51.976;5.660;2023-04-15T03:11:49;5.38;;;2.83;;
34900;SDS011;21112;51.976;5.660;2023-04-15T03:14:17;6.13;;;2.75;;
34900;SDS011;21112;51.976;5.660;2023-04-15T03:16:44;6.10;;;2.67;;
34900;SDS011;21112;51.976;5.660;2023-04-15T03:19:11;6.28;;;2.70;;
34900;SDS011;21112;51.976;5.660;2023-04-15T03:21:38;5.05;;;2.72;;
34900;SDS011;21112;51.976;5.660;2023-04-15T03:24:04;6.15;;;2.58;;
34900;SDS011;21112;51.976;5.660;2023-04-15T03:26:34;5.88;;;2.70;;
34900;SDS011;21112;51.976;5.660;2023-04-15T03:29:01;5.80;;;2.78;;
34900;SDS011;21112;51.976;5.660;2023-04-15T03:31:27;7.93;;;2.58;;
34900;SDS011;21112;51.976;5.660;2023-04-15T03:33:54;6.35;;;2.58;;
34900;SDS011;21112;51.976;5.660;2023-04-15T03:36:21;9.50;;;3.20;;
34900;SDS011;21112;51.976;5.660;2023-04-15T03:38:47;5.43;;;2.58;;
34900;SDS011;21112;51.976;5.660;2023-04-15T03:41:14;7.90;;;3.00;;
34900;SDS011;21112;51.976;5.660;2023-04-15T03:43:43;6.07;;;2.75;;
34900;SDS011;21112;51.976;5.660;2023-04-15T03:46:09;5.57;;;2.70;;
34900;SDS011;21112;51.976;5.660;2023-04-15T03:48:36;7.93;;;3.28;;
34900;SDS011;21112;51.976;5.660;2023-04-15T03:51:03;7.15;;;2.95;;
34900;SDS011;21112;51.976;5.660;2023-04-15T03:53:30;9.52;;;3.15;;
34900;SDS011;21112;51.976;5.660;2023-04-15T03:55:56;7.43;;;3.10;;
34900;SDS011;21112;51.976;5.660;2023-04-15T03:58:23;6.57;;;2.80;;
34900;SDS011;21112;51.976;5.660;2023-04-15T04:00:51;4.45;;;2.67;;
34900;SDS011;21112;51.976;5.660;2023-04-15T04:03:19;5.75;;;2.85;;
34900;SDS011;21112;51.976;5.660;2023-04-15T04:05:45;7.53;;;3.30;;
34900;SDS011;21112;51.976;5.660;2023-04-15T04:08:12;7.30;;;3.35;;
34900;SDS011;21112;51.976;5.660;2023-04-15T04:10:40;8.10;;;3.20;;
34900;SDS011;21112;51.976;5.660;2023-04-15T04:13:07;7.60;;;3.20;;
34900;SDS011;21112;51.976;5.660;2023-04-15T04:15:34;6.05;;;2.78;;
34900;SDS011;21112;51.976;5.660;2023-04-15T04:18:02;8.85;;;3.30;;
34900;SDS011;21112;51.976;5.660;2023-04-15T04:20:31;7.22;;;3.03;;
34900;SDS011;21112;51.976;5.660;2023-04-15T04:22:58;8.98;;;3.08;;
34900;SDS011;21112;51.976;5.660;2023-04-15T04:25:25;8.10;;;3.60;;
34900;SDS011;21112;51.976;5.660;2023-04-15T04:27:52;7.45;;;3.03;;
34900;SDS011;21112;51.976;5.660;2023-04-15T04:30:19;7.75;;;3.22;;
34900;SDS011;21112;51.976;5.660;2023-04-15T04:32:46;7.65;;;3.30;;
34900;SDS011;21112;51.976;5.660;2023-04-15T04:35:15;7.47;;;2.83;;
34900;SDS011;21112;51.976;5.660;2023-04-15T04:37:41;9.05;;;3.45;;
34900;SDS011;21112;51.976;5.660;2023-04-15T04:40:09;10.32;;;3.45;;
34900;SDS011;21112;51.976;5.660;2023-04-15T04:42:38;8.43;;;3.60;;
34900;SDS011;21112;51.976;5.660;2023-04-15T04:45:05;8.40;;;3.67;;
34900;SDS011;21112;51.976;5.660;2023-04-15T04:47:32;8.23;;;3.17;;
34900;SDS011;21112;51.976;5.660;2023-04-15T04:49:59;8.30;;;3.38;;
34900;SDS011;21112;51.976;5.660;2023-04-15T04:52:36;8.15;;;3.58;;
34900;SDS011;21112;51.976;5.660;2023-04-15T04:55:06;8.27;;;3.53;;
34900;SDS011;21112;51.976;5.660;2023-04-15T04:57:33;9.95;;;4.07;;
34900;SDS011;21112;51.976;5.660;2023-04-15T05:00:07;9.18;;;3.55;;
34900;SDS011;21112;51.976;5.660;2023-04-15T05:02:34;7.43;;;3.20;;
34900;SDS011;21112;51.976;5.660;2023-04-15T05:05:01;7.55;;;3.65;;
34900;SDS011;21112;51.976;5.660;2023-04-15T05:07:28;9.60;;;3.10;;
34900;SDS011;21112;51.976;5.660;2023-04-15T05:09:57;8.80;;;3.63;;
34900;SDS011;21112;51.976;5.660;2023-04-15T05:12:24;6.90;;;3.28;;
34900;SDS011;21112;51.976;5.660;2023-04-15T05:14:50;8.50;;;3.78;;
34900;SDS011;21112;51.976;5.660;2023-04-15T05:17:17;8.13;;;3.55;;
34900;SDS011;21112;51.976;5.660;2023-04-15T05:19:47;9.93;;;3.80;;
34900;SDS011;21112;51.976;5.660;2023-04-15T05:22:14;6.85;;;3.33;;
34900;SDS011;21112;51.976;5.660;2023-04-15T05:24:41;9.70;;;4.20;;
34900;SDS011;21112;51.976;5.660;2023-04-15T05:27:09;7.72;;;3.58;;
34900;SDS011;21112;51.976;5.660;2023-04-15T05:29:36;7.70;;;3.35;;
34900;SDS011;21112;51.976;5.660;2023-04-15T05:32:05;7.38;;;3.30;;
34900;SDS011;21112;51.976;5.660;2023-04-15T05:34:33;6.80;;;3.40;;
34900;SDS011;21112;51.976;5.660;2023-04-15T05:37:03;6.60;;;3.25;;
34900;SDS011;21112;51.976;5.660;2023-04-15T05:39:30;9.93;;;3.95;;
34900;SDS011;21112;51.976;5.660;2023-04-15T05:41:58;9.88;;;3.25;;
34900;SDS011;21112;51.976;5.660;2023-04-15T05:44:30;7.57;;;3.70;;
34900;SDS011;21112;51.976;5.660;2023-04-15T05:46:57;8.70;;;3.70;;
34900;SDS011;21112;51.976;5.660;2023-04-15T05:49:25;8.18;;;3.63;;
34900;SDS011;21112;51.976;5.660;2023-04-15T05:51:51;7.60;;;3.80;;
34900;SDS011;21112;51.976;5.660;2023-04-15T05:54:23;8.82;;;3.45;;
34900;SDS011;21112;51.976;5.660;2023-04-15T05:56:52;8.07;;;3.17;;
34900;SDS011;21112;51.976;5.660;2023-04-15T05:59:18;7.60;;;3.75;;
34900;SDS011;21112;51.976;5.660;2023-04-15T06:01:50;8.57;;;3.60;;
34900;SDS011;21112;51.976;5.660;2023-04-15T06:04:17;7.97;;;3.72;;
34900;SDS011;21112;51.976;5.660;2023-04-15T06:06:44;8.45;;;3.60;;
34900;SDS011;21112;51.976;5.660;2023-04-15T06:09:12;8.55;;;3.90;;
34900;SDS011;21112;51.976;5.660;2023-04-15T06:11:39;8.05;;;3.60;;
34900;SDS011;21112;51.976;5.660;2023-04-15T06:14:06;8.10;;;3.67;;
34900;SDS011;21112;51.976;5.660;2023-04-15T06:16:39;7.13;;;3.53;;
34900;SDS011;21112;51.976;5.660;2023-04-15T06:19:11;7.95;;;3.63;;
34900;SDS011;21112;51.976;5.660;2023-04-15T06:21:38;9.80;;;4.18;;
34900;SDS011;21112;51.976;5.660;2023-04-15T06:24:06;8.10;;;3.85;;
34900;SDS011;21112;51.976;5.660;2023-04-15T06:26:32;8.32;;;3.85;;
34900;SDS011;21112;51.976;5.660;2023-04-15T06:29:00;9.48;;;4.18;;
34900;SDS011;21112;51.976;5.660;2023-04-15T06:31:31;9.70;;;4.10;;
34900;SDS011;21112;51.976;5.660;2023-04-15T06:33:57;7.55;;;3.95;;
34900;SDS011;21112;51.976;5.660;2023-04-15T06:36:28;7.15;;;3.67;;
34900;SDS011;21112;51.976;5.660;2023-04-15T06:38:58;9.32;;;3.88;;
34900;SDS011;21112;51.976;5.660;2023-04-15T06:41:25;8.60;;;3.60;;
34900;SDS011;21112;51.976;5.660;2023-04-15T06:43:52;7.25;;;3.40;;
34900;SDS011;21112;51.976;5.660;2023-04-15T06:46:21;7.57;;;3.65;;
34900;SDS011;21112;51.976;5.660;2023-04-15T06:48:50;8.13;;;3.75;;
34900;SDS011;21112;51.976;5.660;2023-04-15T06:51:16;9.18;;;3.80;;
34900;SDS011;21112;51.976;5.660;2023-04-15T06:53:44;8.50;;;3.92;;
34900;SDS011;21112;51.976;5.660;2023-04-15T06:56:11;11.25;;;4.13;;
34900;SDS011;21112;51.976;5.660;2023-04-15T06:58:38;8.50;;;3.92;;
34900;SDS011;21112;51.976;5.660;2023-04-15T07:01:07;10.35;;;4.03;;
34900;SDS011;21112;51.976;5.660;2023-04-15T07:03:34;10.82;;;4.40;;
34900;SDS011;21112;51.976;5.660;2023-04-15T07:06:03;8.25;;;3.67;;
34900;SDS011;21112;51.976;5.660;2023-04-15T07:08:35;8.05;;;3.80;;
34900;SDS011;21112;51.976;5.660;2023-04-15T07:11:09;9.35;;;3.90;;
34900;SDS011;21112;51.976;5.660;2023-04-15T07:13:36;8.38;;;3.55;;
34900;SDS011;21112;51.976;5.660;2023-04-15T07:16:03;8.63;;;3.70;;
34900;SDS011;21112;51.976;5.660;2023-04-15T07:18:30;9.30;;;4.05;;
34900;SDS011;21112;51.976;5.660;2023-04-15T07:20:57;8.50;;;4.25;;
34900;SDS011;21112;51.976;5.660;2023-04-15T07:23:24;11.65;;;4.25;;
34900;SDS011;21112;51.976;5.660;2023-04-15T07:25:53;9.23;;;3.92;;
34900;SDS011;21112;51.976;5.660;2023-04-15T07:28:23;9.93;;;4.05;;
34900;SDS011;21112;51.976;5.660;2023-04-15T07:30:50;7.78;;;3.70;;
34900;SDS011;21112;51.976;5.660;2023-04-15T07:33:17;7.90;;;4.03;;
34900;SDS011;21112;51.976;5.660;2023-04-15T07:35:47;8.80;;;4.15;;
34900;SDS011;21112;51.976;5.660;2023-04-15T07:38:14;8.68;;;3.88;;
34900;SDS011;21112;51.976;5.660;2023-04-15T07:40:41;11.60;;;4.13;;
34900;SDS011;21112;51.976;5.660;2023-04-15T07:43:08;11.20;;;4.00;;
34900;SDS011;21112;51.976;5.660;2023-04-15T07:45:39;8.70;;;3.67;;
34900;SDS011;21112;51.976;5.660;2023-04-15T07:48:05;6.85;;;3.50;;
34900;SDS011;21112;51.976;5.660;2023-04-15T07:50:32;8.95;;;3.35;;
34900;SDS011;21112;51.976;5.660;2023-04-15T07:53:02;8.25;;;3.30;;
34900;SDS011;21112;51.976;5.660;2023-04-15T07:55:29;9.93;;;3.30;;
34900;SDS011;21112;51.976;5.660;2023-04-15T07:57:56;7.57;;;3.22;;
34900;SDS011;21112;51.976;5.660;2023-04-15T08:00:25;7.88;;;3.40;;
34900;SDS011;21112;51.976;5.660;2023-04-15T08:03:03;5.70;;;2.85;;
34900;SDS011;21112;51.976;5.660;2023-04-15T08:05:30;8.63;;;3.42;;
34900;SDS011;21112;51.976;5.660;2023-04-15T08:07:57;7.13;;;3.58;;
34900;SDS011;21112;51.976;5.660;2023-04-15T08:10:24;10.00;;;3.60;;
34900;SDS011;21112;51.976;5.660;2023-04-15T08:12:51;11.48;;;3.63;;
34900;SDS011;21112;51.976;5.660;2023-04-15T08:15:18;7.43;;;3.30;;
34900;SDS011;21112;51.976;5.660;2023-04-15T08:17:49;6.78;;;3.40;;
34900;SDS011;21112;51.976;5.660;2023-04-15T08:20:18;7.07;;;3.28;;
34900;SDS011;21112;51.976;5.660;2023-04-15T08:22:44;9.40;;;3.38;;
34900;SDS011;21112;51.976;5.660;2023-04-15T08:25:15;8.25;;;3.40;;
34900;SDS011;21112;51.976;5.660;2023-04-15T08:27:42;7.95;;;3.40;;
34900;SDS011;21112;51.976;5.660;2023-04-15T08:30:10;8.30;;;3.53;;
34900;SDS011;21112;51.976;5.660;2023-04-15T08:32:40;8.05;;;2.95;;
34900;SDS011;21112;51.976;5.660;2023-04-15T08:35:09;6.40;;;3.10;;
34900;SDS011;21112;51.976;5.660;2023-04-15T08:37:39;6.85;;;3.03;;
34900;SDS011;21112;51.976;5.660;2023-04-15T08:40:09;6.72;;;3.00;;
34900;SDS011;21112;51.976;5.660;2023-04-15T08:42:40;9.27;;;3.35;;
34900;SDS011;21112;51.976;5.660;2023-04-15T08:45:12;7.07;;;3.25;;
34900;SDS011;21112;51.976;5.660;2023-04-15T08:47:41;10.45;;;3.30;;
34900;SDS011;21112;51.976;5.660;2023-04-15T08:50:08;9.15;;;3.85;;
34900;SDS011;21112;51.976;5.660;2023-04-15T08:52:39;8.57;;;3.75;;
34900;SDS011;21112;51.976;5.660;2023-04-15T08:55:08;6.82;;;3.30;;
34900;SDS011;21112;51.976;5.660;2023-04-15T08:57:36;9.18;;;3.22;;
34900;SDS011;21112;51.976;5.660;2023-04-15T09:00:11;9.43;;;2.97;;
34900;SDS011;21112;51.976;5.660;2023-04-15T09:02:38;7.95;;;3.20;;
34900;SDS011;21112;51.976;5.660;2023-04-15T09:05:06;7.85;;;3.20;;
34900;SDS011;21112;51.976;5.660;2023-04-15T09:07:36;6.05;;;2.88;;
34900;SDS011;21112;51.976;5.660;2023-04-15T09:10:05;5.75;;;3.03;;
34900;SDS011;21112;51.976;5.660;2023-04-15T09:12:35;7.10;;;2.90;;
34900;SDS011;21112;51.976;5.660;2023-04-15T09:15:02;6.90;;;2.92;;
34900;SDS011;21112;51.976;5.660;2023-04-15T09:20:06;7.10;;;2.70;;
34900;SDS011;21112;51.976;5.660;2023-04-15T09:22:33;6.82;;;3.13;;
34900;SDS011;21112;51.976;5.660;2023-04-15T09:25:03;7.15;;;2.70;;
34900;SDS011;21112;51.976;5.660;2023-04-15T09:27:31;6.35;;;2.75;;
34900;SDS011;21112;51.976;5.660;2023-04-15T09:30:01;6.72;;;2.78;;
34900;SDS011;21112;51.976;5.660;2023-04-15T09:32:34;6.63;;;2.67;;
34900;SDS011;21112;51.976;5.660;2023-04-15T09:35:09;5.78;;;2.60;;
34900;SDS011;21112;51.976;5.660;2023-04-15T09:40:09;4.43;;;2.38;;
34900;SDS011;21112;51.976;5.660;2023-04-15T09:42:37;5.68;;;2.95;;
34900;SDS011;21112;51.976;5.660;2023-04-15T09:45:19;6.50;;;2.50;;
34900;SDS011;21112;51.976;5.660;2023-04-15T09:47:53;5.20;;;2.45;;
34900;SDS011;21112;51.976;5.660;2023-04-15T09:50:22;8.25;;;2.95;;
34900;SDS011;21112;51.976;5.660;2023-04-15T09:52:54;10.80;;;2.45;;
34900;SDS011;21112;51.976;5.660;2023-04-15T09:55:23;4.40;;;2.28;;
34900;SDS011;21112;51.976;5.660;2023-04-15T09:57:52;4.95;;;1.50;;
34900;SDS011;21112;51.976;5.660;2023-04-15T10:00:19;3.60;;;1.58;;
34900;SDS011;21112;51.976;5.660;2023-04-15T10:02:46;4.03;;;1.48;;
34900;SDS011;21112;51.976;5.660;2023-04-15T10:05:14;2.80;;;1.38;;
34900;SDS011;21112;51.976;5.660;2023-04-15T10:07:44;4.07;;;1.98;;
34900;SDS011;21112;51.976;5.660;2023-04-15T10:10:13;7.18;;;1.83;;
34900;SDS011;21112;51.976;5.660;2023-04-15T10:12:40;4.47;;;1.60;;
34900;SDS011;21112;51.976;5.660;2023-04-15T10:15:16;4.38;;;1.60;;
34900;SDS011;21112;51.976;5.660;2023-04-15T10:17:44;6.10;;;1.88;;
34900;SDS011;21112;51.976;5.660;2023-04-15T10:20:11;2.72;;;1.30;;
34900;SDS011;21112;51.976;5.660;2023-04-15T10:22:39;4.53;;;1.95;;
34900;SDS011;21112;51.976;5.660;2023-04-15T10:25:09;3.42;;;1.50;;
34900;SDS011;21112;51.976;5.660;2023-04-15T10:30:07;3.80;;;1.70;;
34900;SDS011;21112;51.976;5.660;2023-04-15T10:32:37;3.08;;;1.48;;
34900;SDS011;21112;51.976;5.660;2023-04-15T10:35:05;3.05;;;1.63;;
34900;SDS011;21112;51.976;5.660;2023-04-15T10:37:33;8.35;;;1.90;;
34900;SDS011;21112;51.976;5.660;2023-04-15T10:40:01;5.00;;;1.83;;
34900;SDS011;21112;51.976;5.660;2023-04-15T10:42:47;4.78;;;1.80;;
34900;SDS011;21112;51.976;5.660;2023-04-15T10:45:15;5.80;;;1.98;;
34900;SDS011;21112;51.976;5.660;2023-04-15T10:47:43;7.93;;;2.00;;
34900;SDS011;21112;51.976;5.660;2023-04-15T10:52:39;4.22;;;1.75;;
34900;SDS011;21112;51.976;5.660;2023-04-15T10:55:11;6.53;;;1.92;;
34900;SDS011;21112;51.976;5.660;2023-04-15T10:57:39;4.63;;;1.63;;
34900;SDS011;21112;51.976;5.660;2023-04-15T11:00:10;3.75;;;1.75;;
34900;SDS011;21112;51.976;5.660;2023-04-15T11:02:37;5.13;;;2.03;;
34900;SDS011;21112;51.976;5.660;2023-04-15T11:05:08;6.15;;;2.10;;
34900;SDS011;21112;51.976;5.660;2023-04-15T11:07:36;5.97;;;2.10;;
34900;SDS011;21112;51.976;5.660;2023-04-15T11:10:18;4.07;;;2.13;;
34900;SDS011;21112;51.976;5.660;2023-04-15T11:13:01;8.27;;;2.33;;
34900;SDS011;21112;51.976;5.660;2023-04-15T11:15:28;5.27;;;2.00;;
34900;SDS011;21112;51.976;5.660;2023-04-15T11:17:56;4.65;;;1.98;;
34900;SDS011;21112;51.976;5.660;2023-04-15T11:20:24;7.40;;;1.90;;
34900;SDS011;21112;51.976;5.660;2023-04-15T11:22:52;5.95;;;2.53;;
34900;SDS011;21112;51.976;5.660;2023-04-15T11:25:22;5.47;;;2.20;;
34900;SDS011;21112;51.976;5.660;2023-04-15T11:27:52;6.78;;;2.20;;
34900;SDS011;21112;51.976;5.660;2023-04-15T11:30:20;5.70;;;2.00;;
34900;SDS011;21112;51.976;5.660;2023-04-15T11:32:50;8.30;;;2.50;;
34900;SDS011;21112;51.976;5.660;2023-04-15T11:35:21;5.47;;;2.10;;
34900;SDS011;21112;51.976;5.660;2023-04-15T11:37:50;8.65;;;2.22;;
34900;SDS011;21112;51.976;5.660;2023-04-15T11:40:21;7.68;;;2.40;;
34900;SDS011;21112;51.976;5.660;2023-04-15T11:43:02;5.50;;;2.08;;
34900;SDS011;21112;51.976;5.660;2023-04-15T11:45:37;4.75;;;2.15;;
34900;SDS011;21112;51.976;5.660;2023-04-15T11:48:05;10.95;;;2.63;;
34900;SDS011;21112;51.976;5.660;2023-04-15T11:50:33;3.83;;;2.00;;
34900;SDS011;21112;51.976;5.660;2023-04-15T11:53:06;10.98;;;2.00;;
34900;SDS011;21112;51.976;5.660;2023-04-15T11:55:42;5.10;;;1.80;;
34900;SDS011;21112;51.976;5.660;2023-04-15T11:58:11;7.13;;;1.98;;
34900;SDS011;21112;51.976;5.660;2023-04-15T12:00:38;5.30;;;2.17;;
34900;SDS011;21112;51.976;5.660;2023-04-15T12:06:09;6.07;;;1.80;;
34900;SDS011;21112;51.976;5.660;2023-04-15T12:08:55;4.97;;;2.17;;
34900;SDS011;21112;51.976;5.660;2023-04-15T12:11:26;4.25;;;1.77;;
34900;SDS011;21112;51.976;5.660;2023-04-15T12:13:54;5.50;;;1.95;;
34900;SDS011;21112;51.976;5.660;2023-04-15T12:16:30;3.65;;;1.85;;
34900;SDS011;21112;51.976;5.660;2023-04-15T12:18:58;4.90;;;2.13;;
34900;SDS011;21112;51.976;5.660;2023-04-15T12:21:26;3.75;;;1.75;;
34900;SDS011;21112;51.976;5.660;2023-04-15T12:26:26;5.15;;;1.80;;
34900;SDS011;21112;51.976;5.660;2023-04-15T12:28:59;3.75;;;1.90;;
34900;SDS011;21112;51.976;5.660;2023-04-15T12:31:29;4.30;;;1.90;;
34900;SDS011;21112;51.976;5.660;2023-04-15T12:33:58;7.05;;;2.03;;
34900;SDS011;21112;51.976;5.660;2023-04-15T12:36:26;5.68;;;1.90;;
34900;SDS011;21112;51.976;5.660;2023-04-15T12:39:03;5.75;;;1.83;;
34900;SDS011;21112;51.976;5.660;2023-04-15T12:41:33;7.22;;;2.25;;
34900;SDS011;21112;51.976;5.660;2023-04-15T12:43:59;3.15;;;1.65;;
34900;SDS011;21112;51.976;5.660;2023-04-15T12:46:26;6.10;;;1.88;;
34900;SDS011;21112;51.976;5.660;2023-04-15T12:48:59;3.95;;;1.67;;
34900;SDS011;21112;51.976;5.660;2023-04-15T12:51:29;3.20;;;1.50;;
34900;SDS011;21112;51.976;5.660;2023-04-15T12:53:57;3.40;;;1.70;;
34900;SDS011;21112;51.976;5.660;2023-04-15T12:56:29;5.57;;;2.22;;
34900;SDS011;21112;51.976;5.660;2023-04-15T12:59:01;7.03;;;1.92;;
34900;SDS011;21112;51.976;5.660;2023-04-15T13:01:39;4.32;;;1.75;;
34900;SDS011;21112;51.976;5.660;2023-04-15T13:04:21;7.90;;;1.92;;
34900;SDS011;21112;51.976;5.660;2023-04-15T13:07:14;6.05;;;1.73;;
34900;SDS011;21112;51.976;5.660;2023-04-15T13:09:44;8.90;;;1.55;;
34900;SDS011;21112;51.976;5.660;2023-04-15T13:12:14;3.30;;;1.43;;
34900;SDS011;21112;51.976;5.660;2023-04-15T13:14:43;6.07;;;1.40;;
34900;SDS011;21112;51.976;5.660;2023-04-15T13:17:10;7.25;;;1.40;;
34900;SDS011;21112;51.976;5.660;2023-04-15T13:19:40;10.27;;;1.60;;
34900;SDS011;21112;51.976;5.660;2023-04-15T13:22:06;8.48;;;1.60;;
34900;SDS011;21112;51.976;5.660;2023-04-15T13:24:34;6.75;;;1.50;;
34900;SDS011;21112;51.976;5.660;2023-04-15T13:27:05;9.18;;;1.45;;
34900;SDS011;21112;51.976;5.660;2023-04-15T13:29:32;2.53;;;1.20;;
34900;SDS011;21112;51.976;5.660;2023-04-15T13:32:11;4.63;;;1.58;;
34900;SDS011;21112;51.976;5.660;2023-04-15T13:34:37;7.32;;;1.40;;
34900;SDS011;21112;51.976;5.660;2023-04-15T13:37:05;7.65;;;1.30;;
34900;SDS011;21112;51.976;5.660;2023-04-15T13:39:32;5.97;;;1.05;;
34900;SDS011;21112;51.976;5.660;2023-04-15T13:41:59;4.40;;;1.58;;
34900;SDS011;21112;51.976;5.660;2023-04-15T13:44:29;10.95;;;1.35;;
34900;SDS011;21112;51.976;5.660;2023-04-15T13:46:56;3.58;;;1.10;;
34900;SDS011;21112;51.976;5.660;2023-04-15T13:49:24;4.50;;;1.45;;
34900;SDS011;21112;51.976;5.660;2023-04-15T13:51:51;2.88;;;1.15;;
34900;SDS011;21112;51.976;5.660;2023-04-15T13:54:18;2.80;;;1.08;;
34900;SDS011;21112;51.976;5.660;2023-04-15T13:56:51;5.05;;;1.23;;
34900;SDS011;21112;51.976;5.660;2023-04-15T13:59:17;2.88;;;1.20;;
34900;SDS011;21112;51.976;5.660;2023-04-15T14:01:47;2.65;;;1.00;;
34900;SDS011;21112;51.976;5.660;2023-04-15T14:04:14;1.98;;;1.10;;
34900;SDS011;21112;51.976;5.660;2023-04-15T14:06:49;2.20;;;1.00;;
34900;SDS011;21112;51.976;5.660;2023-04-15T14:09:18;2.22;;;0.90;;
34900;SDS011;21112;51.976;5.660;2023-04-15T14:11:51;3.45;;;1.00;;
34900;SDS011;21112;51.976;5.660;2023-04-15T14:14:32;2.42;;;0.93;;
34900;SDS011;21112;51.976;5.660;2023-04-15T14:17:02;2.40;;;0.95;;
34900;SDS011;21112;51.976;5.660;2023-04-15T14:19:31;2.83;;;1.38;;
34900;SDS011;21112;51.976;5.660;2023-04-15T14:22:07;2.65;;;1.30;;
34900;SDS011;21112;51.976;5.660;2023-04-15T14:24:34;3.00;;;1.30;;
34900;SDS011;21112;51.976;5.660;2023-04-15T14:27:07;6.45;;;1.13;;
34900;SDS011;21112;51.976;5.660;2023-04-15T14:29:37;1.88;;;0.90;;
34900;SDS011;21112;51.976;5.660;2023-04-15T14:32:13;2.53;;;1.05;;
34900;SDS011;21112;51.976;5.660;2023-04-15T14:34:47;2.00;;;0.98;;
34900;SDS011;21112;51.976;5.660;2023-04-15T14:37:16;3.97;;;1.20;;
34900;SDS011;21112;51.976;5.660;2023-04-15T14:39:47;3.75;;;1.00;;
34900;SDS011;21112;51.976;5.660;2023-04-15T14:42:19;2.88;;;1.05;;
34900;SDS011;21112;51.976;5.660;2023-04-15T14:44:45;2.65;;;1.00;;
34900;SDS011;21112;51.976;5.660;2023-04-15T14:47:26;2.38;;;0.90;;
34900;SDS011;21112;51.976;5.660;2023-04-15T14:49:58;4.20;;;1.40;;
34900;SDS011;21112;51.976;5.660;2023-04-15T14:52:26;3.58;;;1.17;;
34900;SDS011;21112;51.976;5.660;2023-04-15T14:54:56;2.22;;;1.00;;
34900;SDS011;21112;51.976;5.660;2023-04-15T14:57:24;2.20;;;1.05;;
34900;SDS011;21112;51.976;5.660;2023-04-15T14:59:55;4.05;;;1.08;;
34900;SDS011;21112;51.976;5.660;2023-04-15T15:02:23;5.97;;;1.25;;
34900;SDS011;21112;51.976;5.660;2023-04-15T15:04:50;5.80;;;1.23;;
34900;SDS011;21112;51.976;5.660;2023-04-15T15:07:26;3.95;;;1.23;;
34900;SDS011;21112;51.976;5.660;2023-04-15T15:09:52;2.50;;;1.10;;
34900;SDS011;21112;51.976;5.660;2023-04-15T15:12:21;2.53;;;1.00;;